createdAt,value
2022-07-30T00:00:50.434Z,99536.50
2022-07-30T00:03:20.627Z,99544.06
2022-07-30T00:05:50.666Z,99545.63
2022-07-30T00:08:20.664Z,99539.44
2022-07-30T00:10:51.626Z,99540.50
2022-07-30T00:13:21.797Z,99539.44
2022-07-30T00:15:53.491Z,99536.56
2022-07-30T00:18:23.394Z,99529.31
2022-07-30T00:20:53.482Z,99541.00
2022-07-30T00:23:26.669Z,99537.03
2022-07-30T00:25:56.875Z,99536.25
2022-07-30T00:28:26.695Z,99537.53
2022-07-30T00:30:58.163Z,99535.03
2022-07-30T00:33:28.146Z,99522.31
2022-07-30T00:35:58.286Z,99534.47
2022-07-30T00:38:28.230Z,99539.47
2022-07-30T00:40:59.335Z,99529.59
2022-07-30T00:43:30.356Z,99529.41
2022-07-30T00:46:01.600Z,99532.16
2022-07-30T00:48:31.668Z,99527.59
2022-07-30T00:51:01.742Z,99531.78
2022-07-30T00:53:33.378Z,99517.56
2022-07-30T00:56:04.831Z,99522.38
2022-07-30T00:58:35.020Z,99515.03
2022-07-30T01:01:06.458Z,99510.22
2022-07-30T01:03:38.423Z,99498.34
2022-07-30T01:06:14.149Z,99504.22
2022-07-30T01:08:44.525Z,99517.38
2022-07-30T01:11:14.570Z,99517.22
2022-07-30T01:13:46.244Z,99517.59
2022-07-30T01:16:18.461Z,99517.78
2022-07-30T01:19:06.796Z,99513.81
2022-07-30T01:21:41.390Z,99523.00
2022-07-30T01:24:23.525Z,99513.41
2022-07-30T01:26:56.554Z,99515.91
2022-07-30T01:29:28.722Z,99517.16
2022-07-30T01:32:01.222Z,99518.84
2022-07-30T01:34:35.197Z,99513.41
2022-07-30T01:37:08.544Z,99513.03
2022-07-30T01:39:40.108Z,99508.88
2022-07-30T01:42:14.693Z,99511.81
2022-07-30T01:44:47.971Z,99505.53
2022-07-30T01:47:19.954Z,99503.84
2022-07-30T01:49:52.208Z,99503.44
2022-07-30T01:52:23.776Z,99500.09
2022-07-30T01:54:57.564Z,99496.34
2022-07-30T01:57:28.846Z,99506.38
2022-07-30T02:00:03.336Z,99502.00
2022-07-30T02:02:33.345Z,99503.03
2022-07-30T02:05:04.002Z,99496.56
2022-07-30T02:07:40.604Z,99510.97
2022-07-30T02:10:15.523Z,99493.19
2022-07-30T02:12:52.416Z,99495.69
2022-07-30T02:15:30.359Z,99495.69
2022-07-30T02:18:04.091Z,99497.31
2022-07-30T02:20:38.404Z,99494.84
2022-07-30T02:23:12.435Z,99500.25
2022-07-30T02:25:48.302Z,99499.81
2022-07-30T02:28:22.604Z,99492.50
2022-07-30T02:31:01.124Z,99490.66
2022-07-30T02:33:41.173Z,99494.66
2022-07-30T02:36:21.055Z,99497.34
2022-07-30T02:38:52.552Z,99486.72
2022-07-30T02:41:25.001Z,99467.69
2022-07-30T02:43:58.227Z,99492.53
2022-07-30T02:46:29.336Z,99486.50
2022-07-30T02:49:00.397Z,99485.00
2022-07-30T02:51:32.154Z,99481.84
2022-07-30T02:54:04.504Z,99480.81
2022-07-30T02:56:36.644Z,99483.47
2022-07-30T02:59:09.871Z,99495.44
2022-07-30T03:01:40.063Z,99495.44
2022-07-30T03:04:11.286Z,99500.28
2022-07-30T03:06:43.152Z,99505.03
2022-07-30T03:09:16.766Z,99502.00
2022-07-30T03:11:48.600Z,99491.81
2022-07-30T03:14:20.833Z,99500.47
2022-07-30T03:16:57.496Z,99495.19
2022-07-30T03:19:32.391Z,99503.53
2022-07-30T03:22:04.469Z,99484.91
2022-07-30T03:24:36.269Z,99495.38
2022-07-30T03:27:08.140Z,99496.91
2022-07-30T03:29:41.051Z,99495.84
2022-07-30T03:32:13.708Z,99504.00
2022-07-30T03:34:45.529Z,99511.25
2022-07-30T03:37:17.278Z,99508.38
2022-07-30T03:39:48.138Z,99504.44
2022-07-30T03:42:18.424Z,99500.31
2022-07-30T03:44:50.580Z,99507.47
2022-07-30T03:47:23.818Z,99506.66
2022-07-30T03:49:53.879Z,99506.75
2022-07-30T03:52:23.843Z,99507.16
2022-07-30T03:54:54.373Z,99515.28
2022-07-30T03:57:24.501Z,99506.00
2022-07-30T03:59:56.025Z,99513.63
2022-07-30T04:02:26.024Z,99508.38
2022-07-30T04:04:56.417Z,99516.50
2022-07-30T04:07:26.635Z,99506.94
2022-07-30T04:09:56.558Z,99510.97
2022-07-30T04:12:27.144Z,99514.72
2022-07-30T04:14:59.191Z,99512.69
2022-07-30T04:17:36.480Z,99509.16
2022-07-30T04:20:14.214Z,99515.06
2022-07-30T04:22:46.909Z,99519.19
2022-07-30T04:25:24.069Z,99515.59
2022-07-30T04:28:03.145Z,99518.16
2022-07-30T04:30:35.418Z,99513.81
2022-07-30T04:33:06.343Z,99518.19
2022-07-30T04:35:51.139Z,99511.31
2022-07-30T04:38:22.331Z,99513.41
2022-07-30T04:40:52.536Z,99514.47
2022-07-30T04:43:22.618Z,99508.41
2022-07-30T04:45:54.443Z,99518.66
2022-07-30T04:48:26.745Z,99512.59
2022-07-30T04:51:00.614Z,99515.50
2022-07-30T04:53:30.616Z,99511.56
2022-07-30T04:56:02.598Z,99511.34
2022-07-30T04:58:34.904Z,99504.06
2022-07-30T05:01:07.053Z,99512.00
2022-07-30T05:03:47.964Z,99512.22
2022-07-30T05:06:18.744Z,99521.81
2022-07-30T05:08:49.484Z,99512.41
2022-07-30T05:11:19.485Z,99515.06
2022-07-30T05:13:50.498Z,99519.66
2022-07-30T05:16:22.662Z,99516.72
2022-07-30T05:18:52.823Z,99524.28
2022-07-30T05:21:23.068Z,99525.06
2022-07-30T05:23:53.130Z,99531.88
2022-07-30T05:26:27.666Z,99519.47
2022-07-30T05:28:58.105Z,99520.63
2022-07-30T05:31:29.502Z,99520.41
2022-07-30T05:34:03.669Z,99531.50
2022-07-30T05:36:34.428Z,99524.63
2022-07-30T05:39:05.657Z,99523.13
2022-07-30T05:41:35.750Z,99527.91
2022-07-30T05:44:06.228Z,99530.97
2022-07-30T05:46:38.034Z,99524.22
2022-07-30T05:49:08.356Z,99532.97
2022-07-30T05:51:38.462Z,99528.63
2022-07-30T05:54:08.429Z,99535.59
2022-07-30T05:56:38.496Z,99531.38
2022-07-30T05:59:08.447Z,99538.50
2022-07-30T06:01:39.892Z,99533.19
2022-07-30T06:04:09.840Z,99535.50
2022-07-30T06:06:39.755Z,99535.94
2022-07-30T06:09:10.282Z,99534.09
2022-07-30T06:11:40.434Z,99529.28
2022-07-30T06:14:10.880Z,99535.47
2022-07-30T06:16:45.452Z,99512.72
2022-07-30T06:19:19.675Z,99535.72
2022-07-30T06:22:05.480Z,99525.03
2022-07-30T06:24:37.382Z,99522.59
2022-07-30T06:27:08.124Z,99516.41
2022-07-30T06:29:38.143Z,99504.25
2022-07-30T06:32:09.652Z,99504.03
2022-07-30T06:34:39.585Z,99510.84
2022-07-30T06:37:10.748Z,99516.91
2022-07-30T06:39:57.685Z,99512.00
2022-07-30T06:42:29.038Z,99505.38
2022-07-30T06:44:59.016Z,99506.34
2022-07-30T06:47:31.358Z,99508.13
2022-07-30T06:50:03.110Z,99492.47
2022-07-30T06:52:34.087Z,99500.16
2022-07-30T06:55:04.887Z,99494.72
2022-07-30T06:57:40.112Z,99492.81
2022-07-30T07:00:13.365Z,99492.78
2022-07-30T07:02:44.770Z,99494.56
2022-07-30T07:05:14.860Z,99493.72
2022-07-30T07:07:57.837Z,99486.19
2022-07-30T07:10:29.399Z,99489.50
2022-07-30T07:13:01.772Z,99482.47
2022-07-30T07:15:36.607Z,99477.81
2022-07-30T07:18:09.605Z,99475.56
2022-07-30T07:20:39.960Z,99483.06
2022-07-30T07:23:11.998Z,99484.59
2022-07-30T07:25:42.642Z,99474.94
2022-07-30T07:28:13.665Z,99477.38
2022-07-30T07:30:44.521Z,99478.97
2022-07-30T07:33:16.464Z,99475.03
2022-07-30T07:35:50.292Z,99476.00
2022-07-30T07:38:20.686Z,99473.63
2022-07-30T07:40:50.756Z,99479.53
2022-07-30T07:43:20.737Z,99478.03
2022-07-30T07:45:50.659Z,99478.88
2022-07-30T07:48:22.490Z,99473.97
2022-07-30T07:50:55.014Z,99476.22
2022-07-30T07:53:28.321Z,99470.84
2022-07-30T07:55:59.769Z,99480.88
2022-07-30T07:58:31.032Z,99477.91
2022-07-30T08:01:01.932Z,99474.50
2022-07-30T08:03:33.643Z,99469.84
2022-07-30T08:06:05.724Z,99473.06
2022-07-30T08:08:37.649Z,99461.44
2022-07-30T08:11:08.237Z,99461.56
2022-07-30T08:13:52.165Z,99466.81
2022-07-30T08:16:23.767Z,99460.59
2022-07-30T08:18:55.098Z,99465.56
2022-07-30T08:21:25.569Z,99465.91
2022-07-30T08:23:55.493Z,99471.91
2022-07-30T08:26:25.946Z,99452.56
2022-07-30T08:28:55.746Z,99444.00
2022-07-30T08:31:25.689Z,99454.69
2022-07-30T08:33:57.364Z,99448.78
2022-07-30T08:36:27.361Z,99458.44
2022-07-30T08:38:57.432Z,99438.47
2022-07-30T08:41:28.228Z,99442.69
2022-07-30T08:44:01.363Z,99447.19
2022-07-30T08:46:33.217Z,99441.78
2022-07-30T08:49:07.562Z,99427.47
2022-07-30T08:51:41.103Z,99436.97
2022-07-30T08:54:11.078Z,99435.41
2022-07-30T08:56:41.054Z,99430.25
2022-07-30T08:59:12.904Z,99426.38
2022-07-30T09:01:42.864Z,99419.34
2022-07-30T09:04:14.431Z,99409.19
2022-07-30T09:06:44.370Z,99415.00
2022-07-30T09:09:14.224Z,99419.66
2022-07-30T09:11:44.769Z,99403.16
2022-07-30T09:14:16.325Z,99409.06
2022-07-30T09:16:46.632Z,99407.41
2022-07-30T09:19:19.915Z,99411.03
2022-07-30T09:21:58.228Z,99415.06
2022-07-30T09:24:29.164Z,99412.84
2022-07-30T09:27:00.885Z,99416.19
2022-07-30T09:29:32.456Z,99419.88
2022-07-30T09:32:04.255Z,99415.97
2022-07-30T09:34:37.729Z,99405.22
2022-07-30T09:37:20.450Z,99403.06
2022-07-30T09:39:59.469Z,99389.63
2022-07-30T09:42:32.076Z,99393.84
2022-07-30T09:45:08.232Z,99383.28
2022-07-30T09:47:39.699Z,99384.19
2022-07-30T09:50:18.011Z,99386.69
2022-07-30T09:53:11.786Z,99365.44
2022-07-30T09:55:42.602Z,99387.03
2022-07-30T09:58:20.028Z,99381.47
2022-07-30T10:00:59.422Z,99379.53
2022-07-30T10:03:33.870Z,99375.16
2022-07-30T10:06:14.027Z,99379.59
2022-07-30T10:08:48.255Z,99380.69
2022-07-30T10:11:22.779Z,99377.69
2022-07-30T10:13:56.745Z,99366.47
2022-07-30T10:16:31.086Z,99354.13
2022-07-30T10:19:01.663Z,99354.97
2022-07-30T10:21:36.147Z,99344.56
2022-07-30T10:24:08.213Z,99343.69
2022-07-30T10:26:38.427Z,99339.50
2022-07-30T10:29:08.576Z,99335.69
2022-07-30T10:31:48.862Z,99322.53
2022-07-30T10:34:23.589Z,99337.47
2022-07-30T10:37:04.830Z,99326.44
2022-07-30T10:39:40.106Z,99320.41
2022-07-30T10:42:23.081Z,99320.94
2022-07-30T10:45:18.087Z,99303.41
2022-07-30T10:47:50.018Z,99321.00
2022-07-30T10:50:22.682Z,99326.50
2022-07-30T10:52:56.260Z,99327.63
2022-07-30T10:55:32.865Z,99319.38
2022-07-30T10:58:12.414Z,99325.16
2022-07-30T11:01:00.974Z,99302.84
2022-07-30T11:03:41.702Z,99294.31
2022-07-30T11:06:29.345Z,99289.38
2022-07-30T11:09:00.710Z,99289.13
2022-07-30T11:12:01.401Z,99294.91
2022-07-30T11:15:07.286Z,99296.00
2022-07-30T11:18:12.339Z,99282.22
2022-07-30T11:20:48.849Z,99287.50
2022-07-30T11:23:40.698Z,99288.91
2022-07-30T11:26:14.094Z,99288.59
2022-07-30T11:28:49.626Z,99277.03
2022-07-30T11:31:55.042Z,99282.28
2022-07-30T11:34:29.814Z,99270.44
2022-07-30T11:37:19.094Z,99273.19
2022-07-30T11:40:11.618Z,99274.03
2022-07-30T11:42:43.811Z,99261.06
2022-07-30T11:45:27.107Z,99252.25
2022-07-30T11:48:00.302Z,99237.94
2022-07-30T11:50:33.027Z,99253.06
2022-07-30T11:53:07.509Z,99248.97
2022-07-30T11:55:40.046Z,99252.22
2022-07-30T11:58:13.071Z,99247.56
2022-07-30T12:00:47.972Z,99237.13
2022-07-30T12:03:19.389Z,99233.81
2022-07-30T12:05:51.148Z,99229.66
2022-07-30T12:08:33.466Z,99220.84
2022-07-30T12:11:06.094Z,99222.50
2022-07-30T12:13:44.066Z,99224.41
2022-07-30T12:16:18.158Z,99209.00
2022-07-30T12:18:48.739Z,99210.69
2022-07-30T12:21:19.089Z,99213.97
2022-07-30T12:23:56.775Z,99206.25
2022-07-30T12:26:29.399Z,99206.53
2022-07-30T12:29:05.044Z,99200.47
2022-07-30T12:31:38.551Z,99199.06
2022-07-30T12:34:23.285Z,99191.31
2022-07-30T12:36:53.940Z,99182.78
2022-07-30T12:39:26.405Z,99181.16
2022-07-30T12:41:58.657Z,99170.44
2022-07-30T12:44:41.080Z,99168.19
2022-07-30T12:47:24.153Z,99163.22
2022-07-30T12:49:55.837Z,99159.41
2022-07-30T12:52:30.850Z,99154.13
2022-07-30T12:55:04.416Z,99152.41
2022-07-30T12:57:57.001Z,99156.84
2022-07-30T13:00:30.714Z,99146.94
2022-07-30T13:03:01.111Z,99144.16
2022-07-30T13:05:45.064Z,99134.34
2022-07-30T13:08:15.700Z,99129.06
2022-07-30T13:10:59.836Z,99129.91
2022-07-30T13:13:32.882Z,99128.81
2022-07-30T13:16:08.203Z,99136.72
2022-07-30T13:18:38.753Z,99122.69
2022-07-30T13:21:09.555Z,99121.59
2022-07-30T13:23:41.228Z,99107.88
2022-07-30T13:26:12.427Z,99111.72
2022-07-30T13:28:42.526Z,99108.63
2022-07-30T13:31:14.386Z,99099.06
2022-07-30T13:33:45.236Z,99086.41
2022-07-30T13:36:15.768Z,99089.19
2022-07-30T13:38:45.963Z,99085.63
2022-07-30T13:41:22.601Z,99078.72
2022-07-30T13:43:52.682Z,99074.31
2022-07-30T13:46:24.133Z,99075.97
2022-07-30T13:48:54.341Z,99063.75
2022-07-30T13:51:24.526Z,99069.44
2022-07-30T13:53:55.236Z,99064.25
2022-07-30T13:56:25.628Z,99058.00
2022-07-30T13:58:56.487Z,99055.63
2022-07-30T14:01:28.479Z,99034.28
2022-07-30T14:03:58.915Z,99049.88
2022-07-30T14:06:29.202Z,99031.81
2022-07-30T14:08:59.551Z,99033.41
2022-07-30T14:11:29.647Z,99022.91
2022-07-30T14:14:01.062Z,99027.56
2022-07-30T14:16:49.616Z,99019.63
2022-07-30T14:19:24.682Z,99020.13
2022-07-30T14:21:55.006Z,98992.38
2022-07-30T14:24:25.293Z,99022.97
2022-07-30T14:26:58.173Z,99013.91
2022-07-30T14:29:29.819Z,99014.44
2022-07-30T14:32:01.403Z,99016.31
2022-07-30T14:34:31.478Z,99016.59
2022-07-30T14:37:02.396Z,99015.78
2022-07-30T14:39:34.998Z,99017.44
2022-07-30T14:42:06.473Z,99015.06
2022-07-30T14:44:36.823Z,99016.72
2022-07-30T14:47:09.123Z,99012.28
2022-07-30T14:49:39.239Z,99008.53
2022-07-30T14:52:09.427Z,98996.13
2022-07-30T14:54:40.101Z,99002.81
2022-07-30T14:57:11.463Z,99001.28
2022-07-30T14:59:41.631Z,99006.19
2022-07-30T15:02:13.032Z,98995.88
2022-07-30T15:04:43.314Z,98987.88
2022-07-30T15:07:13.519Z,99001.25
2022-07-30T15:09:43.644Z,98994.69
2022-07-30T15:12:23.834Z,98995.34
2022-07-30T15:14:57.782Z,98998.38
2022-07-30T15:17:29.368Z,98990.34
2022-07-30T15:20:00.535Z,98984.81
2022-07-30T15:22:31.522Z,98989.19
2022-07-30T15:25:02.095Z,98974.09
2022-07-30T15:27:34.267Z,98976.13
2022-07-30T15:30:06.259Z,98975.03
2022-07-30T15:32:39.029Z,98975.56
2022-07-30T15:35:13.591Z,98968.16
2022-07-30T15:37:44.218Z,98971.75
2022-07-30T15:40:14.543Z,98969.59
2022-07-30T15:42:44.883Z,98962.97
2022-07-30T15:45:17.680Z,98963.22
2022-07-30T15:47:49.774Z,98973.81
2022-07-30T15:50:19.914Z,98971.63
2022-07-30T15:52:51.630Z,98972.13
2022-07-30T15:55:22.311Z,98968.31
2022-07-30T15:57:52.546Z,98966.03
2022-07-30T16:00:25.608Z,98969.88
2022-07-30T16:03:01.464Z,98969.66
2022-07-30T16:05:52.533Z,98968.50
2022-07-30T16:08:22.696Z,98968.50
2022-07-30T16:10:53.199Z,98970.78
2022-07-30T16:13:23.629Z,98980.88
2022-07-30T16:15:54.305Z,98974.00
2022-07-30T16:18:26.123Z,98983.72
2022-07-30T16:20:58.957Z,98979.31
2022-07-30T16:23:36.500Z,98983.72
2022-07-30T16:26:09.407Z,98980.69
2022-07-30T16:28:40.663Z,98983.16
2022-07-30T16:31:10.701Z,98984.31
2022-07-30T16:33:42.365Z,98992.09
2022-07-30T16:36:12.804Z,98988.22
2022-07-30T16:38:42.953Z,98986.63
2022-07-30T16:41:13.735Z,98976.81
2022-07-30T16:43:43.910Z,99000.19
2022-07-30T16:46:14.308Z,98994.38
2022-07-30T16:48:50.354Z,98995.50
2022-07-30T16:51:20.819Z,98987.84
2022-07-30T16:53:50.943Z,98996.97
2022-07-30T16:56:21.508Z,98970.34
2022-07-30T16:58:51.694Z,98991.44
2022-07-30T17:01:21.808Z,98995.41
2022-07-30T17:03:53.386Z,99008.38
2022-07-30T17:06:23.653Z,98999.47
2022-07-30T17:08:53.909Z,99006.13
2022-07-30T17:11:47.441Z,99006.66
2022-07-30T17:14:15.713Z,99004.75
2022-07-30T17:16:46.219Z,99011.63
2022-07-30T17:19:18.196Z,99012.75
2022-07-30T17:21:50.554Z,99001.75
2022-07-30T17:24:21.261Z,99010.03
2022-07-30T17:26:51.690Z,99011.41
2022-07-30T17:29:22.183Z,99007.88
2022-07-30T17:31:52.426Z,99015.03
2022-07-30T17:34:27.079Z,99015.59
2022-07-30T17:36:57.291Z,99020.81
2022-07-30T17:40:19.872Z,99009.81
2022-07-30T17:42:17.936Z,99012.28
2022-07-30T17:44:48.295Z,99020.28
2022-07-30T17:47:18.573Z,99020.84
2022-07-30T17:49:51.645Z,99020.56
2022-07-30T17:52:26.606Z,99018.91
2022-07-30T17:54:57.221Z,99032.69
2022-07-30T17:57:27.759Z,99031.03
2022-07-30T17:59:58.155Z,99039.81
2022-07-30T18:02:29.299Z,99029.91
2022-07-30T18:05:00.985Z,99047.50
2022-07-30T18:07:31.472Z,99049.13
2022-07-30T18:10:02.089Z,99055.75
2022-07-30T18:12:32.623Z,99056.84
2022-07-30T18:15:03.815Z,99058.50
2022-07-30T18:17:34.826Z,99062.06
2022-07-30T18:20:07.882Z,99065.63
2022-07-30T18:22:38.203Z,99066.19
2022-07-30T18:25:18.015Z,99074.44
2022-07-30T18:27:50.197Z,99068.91
2022-07-30T18:30:20.423Z,99063.66
2022-07-30T18:32:50.556Z,99069.97
2022-07-30T18:35:22.290Z,99064.22
2022-07-30T18:37:52.455Z,99077.88
2022-07-30T18:40:24.236Z,99080.91
2022-07-30T18:42:54.766Z,99084.19
2022-07-30T18:45:25.715Z,99084.00
2022-07-30T18:47:57.151Z,99080.13
2022-07-30T18:50:29.051Z,99076.50
2022-07-30T18:52:59.065Z,99091.91
2022-07-30T18:55:29.111Z,99093.53
2022-07-30T18:58:01.313Z,99096.00
2022-07-30T19:00:34.353Z,99095.69
2022-07-30T19:03:09.979Z,99108.28
2022-07-30T19:05:44.577Z,99098.41
2022-07-30T19:08:14.660Z,99104.44
2022-07-30T19:10:45.180Z,99113.75
2022-07-30T19:13:15.922Z,99115.88
2022-07-30T19:15:46.930Z,99125.50
2022-07-30T19:18:17.614Z,99125.16
2022-07-30T19:20:50.893Z,99119.69
2022-07-30T19:23:21.479Z,99129.78
2022-07-30T19:25:51.541Z,99128.72
2022-07-30T19:28:22.027Z,99128.91
2022-07-30T19:30:52.124Z,99129.28
2022-07-30T19:33:24.314Z,99137.16
2022-07-30T19:35:55.945Z,99135.53
2022-07-30T19:38:26.159Z,99139.31
2022-07-30T19:40:56.951Z,99125.22
2022-07-30T19:43:27.202Z,99148.84
2022-07-30T19:45:58.781Z,99148.06
2022-07-30T19:48:31.646Z,99147.25
2022-07-30T19:51:04.415Z,99150.19
2022-07-30T19:53:34.939Z,99149.34
2022-07-30T19:56:10.711Z,99161.03
2022-07-30T19:58:42.240Z,99152.78
2022-07-30T20:01:14.719Z,99153.41
2022-07-30T20:03:45.549Z,99153.53
2022-07-30T20:06:19.384Z,99137.72
2022-07-30T20:08:52.485Z,99161.41
2022-07-30T20:11:36.029Z,99161.16
2022-07-30T20:14:07.008Z,99161.38
2022-07-30T20:16:37.821Z,99155.91
2022-07-30T20:19:08.339Z,99159.13
2022-07-30T20:21:56.383Z,99150.06
2022-07-30T20:24:33.069Z,99162.69
2022-07-30T20:27:10.083Z,99162.34
2022-07-30T20:29:53.446Z,99156.69
2022-07-30T20:32:24.865Z,99169.91
2022-07-30T20:34:55.596Z,99163.28
2022-07-30T20:37:27.770Z,99171.50
2022-07-30T20:39:58.171Z,99163.56
2022-07-30T20:42:28.586Z,99166.84
2022-07-30T20:44:59.558Z,99160.47
2022-07-30T20:47:37.489Z,99168.44
2022-07-30T20:50:10.580Z,99168.06
2022-07-30T20:52:47.006Z,99162.84
2022-07-30T20:55:19.344Z,99171.94
2022-07-30T21:03:33.502Z,99174.50
2022-07-30T21:06:04.638Z,99175.53
2022-07-30T21:08:38.340Z,99160.03
2022-07-30T21:11:09.590Z,99175.78
2022-07-30T21:13:41.399Z,99178.22
2022-07-30T21:16:15.724Z,99188.56
2022-07-30T21:18:51.897Z,99194.81
2022-07-30T21:21:30.397Z,99187.53
2022-07-30T21:24:12.400Z,99193.63
2022-07-30T21:26:43.186Z,99210.09
2022-07-30T21:29:13.422Z,99203.47
2022-07-30T21:32:01.247Z,99197.16
2022-07-30T21:34:42.052Z,99204.81
2022-07-30T21:37:13.075Z,99201.50
2022-07-30T21:39:47.433Z,99197.34
2022-07-30T21:42:17.694Z,99200.34
2022-07-30T21:44:56.097Z,99210.22
2022-07-30T21:47:26.151Z,99205.81
2022-07-30T21:49:56.413Z,99203.31
2022-07-30T21:52:26.597Z,99212.06
2022-07-30T21:54:58.076Z,99224.09
2022-07-30T21:57:34.889Z,99226.81
2022-07-30T22:00:10.756Z,99231.59
2022-07-30T22:02:53.310Z,99242.69
2022-07-30T22:05:38.610Z,99245.28
2022-07-30T22:08:10.498Z,99257.53
2022-07-30T22:10:43.619Z,99272.09
2022-07-30T22:13:20.787Z,99313.69
2022-07-30T22:15:53.373Z,99343.91
2022-07-30T22:18:23.861Z,99346.16
2022-07-30T22:20:55.536Z,99342.25
2022-07-30T22:23:25.439Z,99360.84
2022-07-30T22:26:00.072Z,99371.72
2022-07-30T22:28:30.221Z,99374.94
2022-07-30T22:31:00.289Z,99357.72
2022-07-30T22:33:30.478Z,99356.22
2022-07-30T22:36:00.988Z,99364.53
2022-07-30T22:38:31.705Z,99363.38
2022-07-30T22:41:04.266Z,99355.81
2022-07-30T22:43:35.600Z,99363.91
2022-07-30T22:46:30.519Z,99357.38
2022-07-30T22:49:01.395Z,99363.19
2022-07-30T22:51:58.682Z,99350.50
2022-07-30T22:54:21.928Z,99357.84
2022-07-30T22:56:54.256Z,99364.47
2022-07-30T22:59:57.711Z,99362.47
2022-07-30T23:02:15.459Z,99350.56
2022-07-30T23:04:47.879Z,99342.28
2022-07-30T23:07:19.198Z,99339.88
2022-07-30T23:09:51.532Z,99333.97
2022-07-30T23:12:23.791Z,99339.88
2022-07-30T23:12:31.416Z,99170.38
2022-07-30T23:12:32.821Z,99170.00
2022-07-30T23:14:54.729Z,99306.91
2022-07-30T23:17:25.777Z,99314.25
2022-07-30T23:19:55.787Z,99291.34
2022-07-30T23:22:25.769Z,99316.63
2022-07-30T23:24:55.639Z,99305.22
2022-07-30T23:27:27.398Z,99308.44
2022-07-30T23:29:57.604Z,99303.22
2022-07-30T23:32:27.779Z,99285.63
2022-07-30T23:34:57.819Z,99298.25
2022-07-30T23:37:28.091Z,99296.44
2022-07-30T23:39:59.367Z,99287.78
2022-07-30T23:42:30.706Z,99288.59
2022-07-30T23:45:01.827Z,99284.22
2022-07-30T23:47:57.262Z,99274.13
2022-07-30T23:50:22.281Z,99279.94
2022-07-30T23:52:52.307Z,99272.84
2022-07-30T23:55:23.594Z,99271.63
2022-07-30T23:57:54.838Z,99265.81
